Time;durP1;ratioP1;P1;durP2;ratioP2;P2;SDS_P1;SDS_P2;PMS_P1;PMS_P2;Temp;Humidity;BMP_temperature;BMP_pressure;BME280_temperature;BME280_humidity;BME280_pressure;Samples;Min_cycle;Max_cycle;Signal;HPM_P1;HPM_P2
2021/10/04 00:00:52;;;;;;;6.15;4.93;;;;;;;13.43;68.85;99436.38;6095995;23;20052;-83
2021/10/04 00:03:29;;;;;;;7.72;4.82;;;;;;;13.43;68.84;99458.34;6096151;23;20025;-83
2021/10/04 00:05:55;;;;;;;8.43;5.70;;;;;;;13.45;68.33;99462.69;6095833;23;20034;-81
2021/10/04 00:08:43;;;;;;;8.68;5.72;;;;;;;13.39;69.04;99462.16;6096561;23;20342;-81
2021/10/04 00:11:09;;;;;;;8.48;5.20;;;;;;;13.45;68.42;99462.69;6096600;23;20028;-81
2021/10/04 00:13:36;;;;;;;10.60;5.57;;;;;;;13.45;68.39;99462.69;6096326;23;20022;-81
2021/10/04 00:16:06;;;;;;;6.88;4.53;;;;;;;13.42;68.58;99464.59;6095897;23;20026;-81
2021/10/04 00:18:33;;;;;;;8.25;5.22;;;;;;;13.44;68.37;99469.78;6096840;23;20034;-81
2021/10/04 00:21:25;;;;;;;8.77;4.85;;;;;;;13.41;68.93;99465.56;6096655;23;20037;-81
2021/10/04 00:23:51;;;;;;;6.32;4.55;;;;;;;13.46;68.38;99472.31;6096206;23;20093;-81
2021/10/04 00:26:25;;;;;;;7.07;4.40;;;;;;;13.43;68.59;99474.22;6096049;23;20022;-81
2021/10/04 00:28:52;;;;;;;7.38;4.30;;;;;;;13.46;68.26;99475.78;6095856;23;20026;-81
2021/10/04 00:31:19;;;;;;;7.47;4.43;;;;;;;13.47;68.34;99480.13;6095859;23;20029;-81
2021/10/04 00:34:22;;;;;;;6.63;4.53;;;;;;;13.43;69.21;99473.38;6095746;23;20027;-81
2021/10/04 00:36:49;;;;;;;6.05;3.63;;;;;;;13.47;68.47;99477.50;6097246;23;20095;-81
2021/10/04 00:39:24;;;;;;;8.93;4.00;;;;;;;13.45;68.55;99491.78;6096204;23;20022;-81
2021/10/04 00:41:51;;;;;;;6.38;4.05;;;;;;;13.47;68.32;99501.28;6095855;23;20025;-81
2021/10/04 00:44:18;;;;;;;4.88;3.78;;;;;;;13.46;68.28;99494.28;6096147;23;20086;-81
2021/10/04 00:46:53;;;;;;;6.03;3.50;;;;;;;13.42;68.81;99506.91;6096137;23;20022;-81
2021/10/04 00:49:20;;;;;;;5.00;3.60;;;;;;;13.45;68.29;99512.94;6095859;23;20023;-81
2021/10/04 00:51:47;;;;;;;5.85;3.40;;;;;;;13.43;68.17;99529.72;6095707;23;20023;-81
2021/10/04 00:54:29;;;;;;;5.20;3.78;;;;;;;13.37;68.89;99530.19;6095639;23;20023;-81
2021/10/04 00:56:56;;;;;;;5.40;3.20;;;;;;;13.41;68.29;99521.06;6096091;23;20029;-81
2021/10/04 00:59:23;;;;;;;5.55;3.15;;;;;;;13.41;68.39;99526.38;6095936;23;20039;-81
2021/10/04 01:01:49;;;;;;;8.45;3.47;;;;;;;13.41;68.52;99518.44;6096274;23;20407;-81
2021/10/04 01:04:16;;;;;;;6.07;3.60;;;;;;;13.41;68.32;99523.72;6096117;23;20105;-81
2021/10/04 01:06:48;;;;;;;5.88;3.13;;;;;;;13.40;68.75;99526.47;6095968;23;20033;-81
2021/10/04 01:09:15;;;;;;;3.65;2.80;;;;;;;13.41;68.39;99531.66;6096122;23;20026;-81
2021/10/04 01:11:41;;;;;;;4.45;2.80;;;;;;;13.41;68.21;99529.00;6095898;23;20097;-81
2021/10/04 01:14:08;;;;;;;4.20;2.92;;;;;;;13.41;68.29;99544.88;6095853;23;20050;-81
2021/10/04 01:19:58;;;;;;;6.40;2.67;;;;;;;13.43;68.03;99550.06;6097929;23;20031;-81
2021/10/04 01:22:25;;;;;;;4.57;2.17;;;;;;;13.42;68.23;99543.91;6096090;23;20026;-81
2021/10/04 01:25:26;;;;;;;5.05;2.50;;;;;;;13.36;68.82;99547.00;6095892;23;20513;-81
2021/10/04 01:27:53;;;;;;;4.85;2.40;;;;;;;13.39;68.19;99562.63;6095865;23;20109;-81
2021/10/04 01:30:24;;;;;;;5.22;2.58;;;;;;;13.37;68.29;99561.91;6095849;23;20109;-81
2021/10/04 01:32:55;;;;;;;4.30;1.70;;;;;;;13.36;68.53;99554.94;6095672;23;20023;-81
2021/10/04 01:35:23;;;;;;;2.58;1.88;;;;;;;13.37;68.31;99555.78;6095842;23;20505;-81
2021/10/04 01:38:20;;;;;;;6.68;2.38;;;;;;;13.34;68.93;99550.72;6096018;23;20371;-81
2021/10/04 01:41:33;;;;;;;3.95;2.10;;;;;;;13.33;68.72;99552.50;6095995;23;20101;-81
2021/10/04 01:44:00;;;;;;;6.32;2.10;;;;;;;13.36;68.21;99539.09;6097447;23;20049;-81
2021/10/04 01:46:37;;;;;;;3.55;2.00;;;;;;;13.31;68.64;99549.16;6097937;23;20023;-81
2021/10/04 01:49:04;;;;;;;3.05;1.70;;;;;;;13.35;68.38;99558.53;6097442;23;20026;-81
2021/10/04 01:51:31;;;;;;;3.80;1.65;;;;;;;13.34;68.34;99559.47;6097915;23;20030;-81
2021/10/04 01:54:01;;;;;;;4.28;1.80;;;;;;;13.34;68.48;99543.63;6098051;23;20022;-81
2021/10/04 01:56:27;;;;;;;4.90;1.80;;;;;;;13.36;68.31;99535.59;6097562;23;20028;-81
2021/10/04 01:59:10;;;;;;;3.05;1.75;;;;;;;13.33;68.83;99527.88;6097326;23;20109;-81
2021/10/04 02:01:37;;;;;;;3.03;1.90;;;;;;;13.36;68.16;99525.88;6099516;23;20054;-81
2021/10/04 02:04:04;;;;;;;3.55;1.67;;;;;;;13.37;68.26;99524.03;6097321;23;20085;-81
2021/10/04 02:06:35;;;;;;;2.22;1.50;;;;;;;13.35;68.51;99531.25;6097254;23;20022;-81
2021/10/04 02:09:02;;;;;;;3.65;1.73;;;;;;;13.37;68.31;99537.25;6097402;23;20105;-81
2021/10/04 02:11:53;;;;;;;2.88;1.70;;;;;;;13.32;68.68;99545.53;6097894;23;20097;-81
2021/10/04 02:14:20;;;;;;;2.42;1.40;;;;;;;13.37;68.04;99553.13;6096928;23;20028;-81
2021/10/04 02:16:47;;;;;;;3.75;1.67;;;;;;;13.37;68.17;99555.78;6097275;23;20023;-81
2021/10/04 02:19:35;;;;;;;1.83;1.35;;;;;;;13.33;68.44;99554.28;6097151;23;20022;-81
2021/10/04 02:22:03;;;;;;;4.93;1.55;;;;;;;13.36;68.01;99559.38;6097456;23;20037;-81
2021/10/04 02:24:30;;;;;;;4.35;1.65;;;;;;;13.34;68.02;99559.47;6096894;23;20022;-81
2021/10/04 02:27:32;;;;;;;2.92;1.45;;;;;;;13.29;68.53;99551.03;6096792;23;20481;-81
2021/10/04 02:30:00;;;;;;;3.80;1.50;;;;;;;13.33;67.92;99557.78;6097122;23;20018;-81
2021/10/04 02:32:27;;;;;;;5.47;1.50;;;;;;;13.32;68.25;99552.63;6097087;23;20056;-81
2021/10/04 02:34:58;;;;;;;3.70;1.52;;;;;;;13.29;68.19;99548.41;6097297;23;20101;-81
2021/10/04 02:37:25;;;;;;;3.53;1.40;;;;;;;13.31;68.12;99548.28;6096800;23;20105;-81
2021/10/04 02:43:06;;;;;;;2.73;1.20;;;;;;;13.28;68.22;99547.53;6098508;23;20029;-81
2021/10/04 02:45:33;;;;;;;1.98;1.20;;;;;;;13.28;67.86;99544.91;6096925;23;20101;-81
2021/10/04 02:48:09;;;;;;;4.80;1.13;;;;;;;13.24;68.45;99538.16;6097364;23;20345;-81
2021/10/04 02:50:36;;;;;;;4.88;1.50;;;;;;;13.27;68.24;99537.94;6097445;23;20423;-81
2021/10/04 02:53:03;;;;;;;2.40;1.30;;;;;;;13.28;68.15;99541.44;6096552;23;20027;-81
2021/10/04 02:55:31;;;;;;;3.50;1.33;;;;;;;13.27;68.02;99548.50;6096698;23;20097;-81
2021/10/04 02:57:57;;;;;;;3.35;1.27;;;;;;;13.29;67.91;99548.41;6097329;23;20101;-81
2021/10/04 03:00:32;;;;;;;3.45;1.17;;;;;;;13.26;68.00;99546.81;6096925;23;20101;-81
2021/10/04 03:03:01;;;;;;;4.70;1.92;;;;;;;13.29;68.03;99551.03;6097151;23;20018;-81
2021/10/04 03:05:28;;;;;;;3.15;1.40;;;;;;;13.28;68.13;99560.75;6097096;23;20034;-81
2021/10/04 03:08:02;;;;;;;4.63;1.30;;;;;;;13.25;68.25;99570.72;6096648;23;20023;-81
2021/10/04 03:10:30;;;;;;;3.17;1.30;;;;;;;13.28;68.07;99557.28;6096638;23;20109;-81
2021/10/04 03:13:15;;;;;;;2.80;1.40;;;;;;;13.23;68.38;99552.31;6096931;23;20026;-81
2021/10/04 03:15:42;;;;;;;2.75;1.30;;;;;;;13.27;67.96;99558.25;6096902;23;20469;-81
2021/10/04 03:19:02;;;;;;;3.78;1.40;;;;;;;13.23;68.20;99578.75;6096758;23;20062;-81
2021/10/04 03:21:29;;;;;;;1.60;1.15;;;;;;;13.26;67.75;99557.41;6096831;23;20018;-81
2021/10/04 03:23:55;;;;;;;1.77;1.13;;;;;;;13.25;67.79;99571.56;6096254;23;20101;-81
2021/10/04 03:26:29;;;;;;;1.85;1.15;;;;;;;13.21;68.03;99578.03;6097006;23;20026;-81
2021/10/04 03:28:56;;;;;;;3.72;1.15;;;;;;;13.23;67.93;99578.75;6096850;23;20073;-81
2021/10/04 03:31:23;;;;;;;1.80;0.88;;;;;;;13.23;67.64;99584.03;6096857;23;20026;-81
2021/10/04 03:33:49;;;;;;;3.67;1.10;;;;;;;13.23;67.79;99584.03;6096020;23;20022;-81
2021/10/04 03:36:16;;;;;;;3.95;1.02;;;;;;;13.22;67.78;99598.22;6096378;23;20022;-81
2021/10/04 03:39:09;;;;;;;2.65;1.02;;;;;;;13.18;68.09;99590.59;6096477;23;20104;-81
2021/10/04 03:45:00;;;;;;;2.60;0.98;;;;;;;13.22;67.82;99597.34;6097752;23;20029;-81
2021/10/04 03:47:26;;;;;;;2.55;1.23;;;;;;;13.21;67.72;99606.25;6096404;23;20101;-81
2021/10/04 03:49:59;;;;;;;3.45;0.82;;;;;;;13.18;67.79;99598.53;6096191;23;20029;-81
2021/10/04 03:52:26;;;;;;;2.08;1.13;;;;;;;13.21;67.81;99603.59;6097009;23;20326;-81
2021/10/04 03:54:53;;;;;;;3.25;1.30;;;;;;;13.20;67.82;99609.84;6096305;23;20122;-81
2021/10/04 03:57:45;;;;;;;7.28;1.13;;;;;;;13.15;68.08;99607.53;6096376;23;20028;-81
2021/10/04 04:00:19;;;;;;;3.17;1.07;;;;;;;13.17;67.95;99618.84;6096804;23;20029;-81
2021/10/04 04:02:46;;;;;;;2.15;1.17;;;;;;;13.18;67.61;99617.03;6091069;23;20019;-81
2021/10/04 04:05:13;;;;;;;2.85;1.17;;;;;;;13.16;67.78;99625.91;6096322;23;20030;-81
2021/10/04 04:07:40;;;;;;;1.80;1.10;;;;;;;13.15;67.99;99632.16;6096116;23;20029;-81
2021/10/04 04:10:11;;;;;;;4.82;1.20;;;;;;;13.14;67.94;99638.41;6096573;23;20626;-81
2021/10/04 04:12:39;;;;;;;4.63;1.13;;;;;;;13.15;67.96;99639.22;6096280;23;20022;-81
2021/10/04 04:15:06;;;;;;;3.80;1.02;;;;;;;13.14;67.87;99638.41;6096332;23;20403;-81
2021/10/04 04:17:33;;;;;;;2.38;0.98;;;;;;;13.15;67.89;99649.81;6096104;23;20156;-81
2021/10/04 04:20:00;;;;;;;5.35;1.23;;;;;;;13.14;68.14;99648.97;6096054;23;20029;-81
2021/10/04 04:22:27;;;;;;;3.78;1.40;;;;;;;13.15;67.92;99644.53;6096002;23;20024;-81
2021/10/04 04:24:56;;;;;;;2.70;1.20;;;;;;;13.15;67.91;99640.09;6095844;23;20101;-81
2021/10/04 04:27:26;;;;;;;3.53;1.25;;;;;;;13.15;67.96;99642.72;6096700;23;20054;-81
2021/10/04 04:30:17;;;;;;;4.47;1.23;;;;;;;13.13;68.29;99647.25;6096121;23;20026;-81
2021/10/04 04:32:44;;;;;;;2.17;1.05;;;;;;;13.20;68.18;99654.78;6096430;23;20467;-81
2021/10/04 04:35:11;;;;;;;4.15;1.23;;;;;;;13.22;67.86;99642.28;6096015;23;20022;-81
2021/10/04 04:38:00;;;;;;;4.35;1.70;;;;;;;13.18;68.29;99651.38;6098282;23;20061;-81
2021/10/04 04:40:26;;;;;;;2.28;1.23;;;;;;;13.22;67.98;99650.22;6096007;23;20050;-81
2021/10/04 04:42:53;;;;;;;1.38;0.95;;;;;;;13.25;67.89;99647.38;6096280;23;20026;-81
2021/10/04 04:45:21;;;;;;;2.65;1.00;;;;;;;13.24;67.84;99645.69;6095982;23;20472;-81
2021/10/04 04:47:51;;;;;;;3.17;1.35;;;;;;;13.24;67.80;99658.91;6096264;23;20533;-81
2021/10/04 04:50:19;;;;;;;2.08;1.08;;;;;;;13.25;67.80;99657.94;6095849;23;20081;-81
2021/10/04 04:52:47;;;;;;;2.83;1.05;;;;;;;13.26;67.94;99659.63;6095914;23;20110;-81
2021/10/04 04:55:21;;;;;;;3.65;1.20;;;;;;;13.23;67.95;99658.03;6095731;23;20022;-81
2021/10/04 04:57:48;;;;;;;4.75;1.35;;;;;;;13.26;67.90;99664.91;6095934;23;20023;-81
2021/10/04 05:00:15;;;;;;;2.38;1.10;;;;;;;13.26;67.64;99662.28;6097593;23;20028;-81
2021/10/04 05:02:55;;;;;;;1.67;1.05;;;;;;;13.22;67.87;99656.38;6096108;23;20041;-81
2021/10/04 05:05:22;;;;;;;2.10;1.13;;;;;;;13.26;67.67;99656.97;6096172;23;20058;-81
2021/10/04 05:07:48;;;;;;;2.55;1.00;;;;;;;13.26;67.71;99651.69;6095970;23;20105;-81
2021/10/04 05:10:16;;;;;;;4.40;1.33;;;;;;;13.25;67.72;99656.16;6095800;23;20028;-81
2021/10/04 05:12:43;;;;;;;2.88;1.15;;;;;;;13.25;67.89;99652.66;6095692;23;20026;-81
2021/10/04 05:15:10;;;;;;;5.45;1.30;;;;;;;13.25;67.71;99653.50;6096946;23;20061;-81
2021/10/04 05:18:04;;;;;;;3.70;1.00;;;;;;;13.22;67.89;99656.38;6098296;23;20023;-81
2021/10/04 05:20:32;;;;;;;3.13;1.45;;;;;;;13.26;67.58;99657.84;6097731;23;20019;-81
2021/10/04 05:22:59;;;;;;;3.20;1.08;;;;;;;13.27;67.65;99659.53;6098211;23;20509;-81
2021/10/04 05:25:31;;;;;;;4.85;1.30;;;;;;;13.26;67.85;99670.19;6097542;23;20028;-81
2021/10/04 05:27:58;;;;;;;2.15;1.08;;;;;;;13.28;67.56;99661.22;6098286;23;20379;-81
2021/10/04 05:30:26;;;;;;;1.45;0.98;;;;;;;13.29;67.64;99656.78;6098109;23;20323;-81
2021/10/04 05:32:58;;;;;;;3.60;1.17;;;;;;;13.27;67.68;99658.69;6097582;23;20056;-81
2021/10/04 05:35:24;;;;;;;5.03;1.50;;;;;;;13.29;67.56;99655.00;6097691;23;20116;-81
2021/10/04 05:37:51;;;;;;;3.47;1.33;;;;;;;13.30;67.57;99658.47;6097636;23;20022;-81
2021/10/04 05:40:18;;;;;;;5.45;1.35;;;;;;;13.31;67.64;99661.97;6097630;23;20018;-81
2021/10/04 05:42:45;;;;;;;3.50;1.50;;;;;;;13.31;67.80;99665.47;6098023;23;20510;-81
2021/10/04 05:45:15;;;;;;;3.00;1.45;;;;;;;13.29;67.76;99665.56;6097269;23;20022;-81
2021/10/04 05:47:43;;;;;;;4.95;1.23;;;;;;;13.31;67.56;99665.47;6097508;23;20109;-81
2021/10/04 05:50:14;;;;;;;1.50;1.23;;;;;;;13.29;67.70;99668.22;6097579;23;20022;-81
2021/10/04 05:52:42;;;;;;;3.17;1.50;;;;;;;13.32;67.89;99672.44;6097425;23;20026;-81
2021/10/04 05:55:09;;;;;;;3.85;1.38;;;;;;;13.33;67.90;99683.84;6097291;23;20026;-81
2021/10/04 05:57:36;;;;;;;2.92;1.40;;;;;;;13.33;67.75;99676.75;6097778;23;20022;-81
2021/10/04 06:00:06;;;;;;;3.92;1.60;;;;;;;13.33;67.81;99687.34;6097384;23;20026;-80
2021/10/04 06:02:33;;;;;;;1.65;1.40;;;;;;;13.35;67.83;99696.00;6099155;23;20061;-80
2021/10/04 06:05:05;;;;;;;2.83;1.45;;;;;;;13.35;67.81;99703.91;6097583;23;20065;-80
2021/10/04 06:07:32;;;;;;;3.15;1.77;;;;;;;13.38;67.77;99703.72;6097971;23;20101;-80
2021/10/04 06:09:59;;;;;;;2.15;1.08;;;;;;;13.39;67.70;99702.75;6097256;23;20101;-81
2021/10/04 06:12:29;;;;;;;2.67;0.90;;;;;;;13.41;67.75;99700.00;6098040;23;20037;-80
2021/10/04 06:15:00;;;;;;;5.53;1.50;;;;;;;13.41;67.84;99706.16;6097182;23;20037;-81
2021/10/04 06:17:27;;;;;;;5.15;1.55;;;;;;;13.47;67.72;99717.25;6097242;23;20058;-80
2021/10/04 06:19:55;;;;;;;2.50;0.95;;;;;;;13.48;67.59;99718.97;6097292;23;20106;-81
2021/10/04 06:22:22;;;;;;;5.57;1.33;;;;;;;13.49;67.69;99736.53;6098026;23;20421;-80
2021/10/04 06:24:58;;;;;;;1.77;0.93;;;;;;;13.48;67.82;99732.19;6097429;23;20522;-81
2021/10/04 06:27:25;;;;;;;3.15;1.15;;;;;;;13.53;67.63;99730.09;6096935;23;20022;-80
2021/10/04 06:29:52;;;;;;;3.05;1.10;;;;;;;13.55;67.75;99733.47;6097907;23;20022;-80
2021/10/04 06:32:19;;;;;;;3.83;1.20;;;;;;;13.59;67.65;99742.00;6097515;23;20030;-80
2021/10/04 06:34:45;;;;;;;2.58;1.00;;;;;;;13.61;67.75;99745.41;6097167;23;20446;-80
2021/10/04 06:37:12;;;;;;;2.53;1.13;;;;;;;13.62;67.75;99739.16;6097097;23;20109;-80
2021/10/04 06:39:39;;;;;;;4.28;1.48;;;;;;;13.64;67.58;99735.44;6097457;23;20036;-80
2021/10/04 06:42:05;;;;;;;1.52;1.23;;;;;;;13.67;67.58;99737.88;6096799;23;20113;-80
2021/10/04 06:44:34;;;;;;;3.90;1.13;;;;;;;13.68;67.49;99750.16;6097442;23;20023;-80
2021/10/04 06:47:01;;;;;;;1.48;0.88;;;;;;;13.72;67.51;99752.59;6097415;23;20105;-80
2021/10/04 06:49:31;;;;;;;3.65;1.10;;;;;;;13.74;67.59;99762.09;6098513;23;20114;-80
2021/10/04 06:52:26;;;;;;;6.15;1.33;;;;;;;13.73;67.71;99762.22;6097617;23;20062;-80
2021/10/04 06:54:52;;;;;;;1.52;1.27;;;;;;;13.81;67.56;99773.09;6096819;23;20022;-80
2021/10/04 06:57:19;;;;;;;2.47;1.05;;;;;;;13.83;67.39;99786.22;6099142;23;20031;-81
2021/10/04 06:59:46;;;;;;;2.38;1.35;;;;;;;13.85;67.54;99787.81;6098310;23;20023;-81
2021/10/04 07:02:15;;;;;;;1.85;0.88;;;;;;;13.87;67.45;99779.78;6096891;23;20029;-81
2021/10/04 07:04:42;;;;;;;2.88;1.10;;;;;;;13.90;67.30;99776.88;6096582;23;20072;-80
2021/10/04 07:07:15;;;;;;;2.25;1.00;;;;;;;13.89;67.28;99772.56;6096709;23;20022;-80
2021/10/04 07:09:42;;;;;;;3.05;1.10;;;;;;;13.94;67.35;99770.41;6096754;23;20022;-81
2021/10/04 07:12:09;;;;;;;1.48;1.23;;;;;;;13.96;67.42;99788.84;6097062;23;20098;-80
2021/10/04 07:14:36;;;;;;;2.95;1.20;;;;;;;14.00;67.38;99803.56;6096855;23;20022;-81
2021/10/04 07:17:03;;;;;;;2.40;1.00;;;;;;;14.02;67.21;99809.59;6097002;23;20435;-81
2021/10/04 07:19:30;;;;;;;2.70;1.13;;;;;;;14.04;67.26;99815.63;6096407;23;20101;-81
2021/10/04 07:21:58;;;;;;;2.85;0.90;;;;;;;14.07;67.19;99820.69;6096698;23;20337;-81
2021/10/04 07:24:25;;;;;;;3.85;1.00;;;;;;;14.10;67.12;99827.56;6096819;23;20094;-81
2021/10/04 07:26:52;;;;;;;2.60;0.98;;;;;;;14.13;66.89;99825.53;6096611;23;20026;-80
2021/10/04 07:29:19;;;;;;;1.70;0.90;;;;;;;14.18;67.13;99830.53;6096623;23;20022;-81
2021/10/04 07:31:47;;;;;;;1.10;1.00;;;;;;;14.20;66.86;99804.78;6096875;23;20091;-80
2021/10/04 07:34:14;;;;;;;5.75;1.08;;;;;;;14.24;66.88;99810.72;6096501;23;20462;-83
2021/10/04 07:36:41;;;;;;;1.75;1.00;;;;;;;14.27;66.84;99810.47;6097846;23;20029;-83
2021/10/04 07:39:09;;;;;;;2.75;0.95;;;;;;;14.29;66.80;99804.13;6096423;23;20097;-83
2021/10/04 07:41:37;;;;;;;3.92;1.10;;;;;;;14.33;66.75;99800.28;6096021;23;20023;-82
2021/10/04 07:44:04;;;;;;;2.83;0.90;;;;;;;14.39;66.83;99795.53;6096475;23;20439;-81
2021/10/04 07:46:31;;;;;;;1.50;1.00;;;;;;;14.42;66.73;99797.94;6096976;23;20060;-80
2021/10/04 07:49:00;;;;;;;0.93;0.82;;;;;;;14.44;66.57;99804.81;6096618;23;20062;-81
2021/10/04 07:51:32;;;;;;;7.63;1.55;;;;;;;14.50;66.76;99810.63;6096479;23;20101;-80
2021/10/04 07:54:02;;;;;;;2.95;1.00;;;;;;;14.50;66.51;99816.75;6098218;23;20019;-81
2021/10/04 07:56:28;;;;;;;2.35;0.90;;;;;;;14.56;66.55;99820.78;6096233;23;20037;-81
2021/10/04 07:59:11;;;;;;;3.20;1.00;;;;;;;14.55;66.03;99819.91;6097554;23;20347;-81
2021/10/04 08:01:37;;;;;;;1.67;0.70;;;;;;;14.63;66.40;99822.03;6097022;23;20109;-80
2021/10/04 08:04:11;;;;;;;1.25;0.82;;;;;;;14.65;66.01;99812.16;6097860;23;20026;-81
2021/10/04 08:06:38;;;;;;;1.25;0.70;;;;;;;14.71;66.52;99814.38;6096418;23;20093;-80
2021/10/04 08:09:18;;;;;;;6.93;1.13;;;;;;;14.73;66.25;99812.44;6092882;23;20038;-81
2021/10/04 08:11:45;;;;;;;2.80;1.00;;;;;;;14.83;66.37;99809.97;6097347;23;20022;-81
2021/10/04 08:14:14;;;;;;;6.00;1.50;;;;;;;14.86;66.00;99800.97;6096016;23;20101;-80
2021/10/04 08:16:41;;;;;;;3.08;1.00;;;;;;;14.92;66.02;99804.97;6096090;23;20037;-80
2021/10/04 08:19:16;;;;;;;3.63;1.10;;;;;;;14.94;65.49;99813.63;6096569;23;20081;-80
2021/10/04 08:21:43;;;;;;;2.78;0.93;;;;;;;15.00;65.85;99805.22;6095886;23;20139;-80
2021/10/04 08:24:26;;;;;;;2.33;1.17;;;;;;;15.00;65.55;99814.97;6095860;23;20093;-80
2021/10/04 08:26:52;;;;;;;5.13;0.93;;;;;;;15.08;65.67;99831.16;6096277;23;20034;-80
2021/10/04 08:29:25;;;;;;;2.15;1.10;;;;;;;15.09;65.45;99838.16;6096137;23;20110;-81
2021/10/04 08:31:52;;;;;;;3.60;1.00;;;;;;;15.15;65.52;99829.75;6096498;23;20341;-81
2021/10/04 08:34:19;;;;;;;3.38;0.98;;;;;;;15.19;65.72;99830.34;6095603;23;20022;-81
2021/10/04 08:36:51;;;;;;;5.00;1.05;;;;;;;15.21;65.35;99825.75;6095993;23;20026;-81
2021/10/04 08:39:18;;;;;;;2.22;1.00;;;;;;;15.28;65.88;99819.03;6095769;23;20034;-81
2021/10/04 08:41:45;;;;;;;3.78;0.82;;;;;;;15.35;65.67;99825.59;6096115;23;20026;-81
2021/10/04 08:44:13;;;;;;;2.30;1.00;;;;;;;15.41;65.72;99832.22;6095855;23;20022;-81
2021/10/04 08:46:44;;;;;;;3.42;1.27;;;;;;;15.49;65.22;99840.44;6095983;23;20022;-81
2021/10/04 08:49:13;;;;;;;2.50;1.00;;;;;;;15.56;64.67;99840.81;6095875;23;20029;-81
2021/10/04 08:51:46;;;;;;;3.58;1.25;;;;;;;15.61;64.79;99827.19;6095950;23;20109;-81
2021/10/04 08:54:14;;;;;;;3.78;1.10;;;;;;;15.69;64.93;99827.44;6095598;23;20098;-81
2021/10/04 08:56:40;;;;;;;2.78;1.10;;;;;;;15.71;64.68;99822.88;6096220;23;20350;-81
2021/10/04 08:59:07;;;;;;;3.15;0.95;;;;;;;15.74;64.71;99827.91;6096249;23;20415;-81
2021/10/04 09:01:34;;;;;;;3.25;1.20;;;;;;;15.76;64.61;99838.41;6095673;23;20102;-81
2021/10/04 09:04:08;;;;;;;2.25;1.05;;;;;;;15.76;63.89;99838.41;6095573;23;20030;-79
2021/10/04 09:06:37;;;;;;;3.03;1.08;;;;;;;15.80;64.29;99842.53;6096101;23;20062;-79
2021/10/04 09:09:05;;;;;;;3.22;1.27;;;;;;;15.82;64.24;99834.44;6095838;23;20022;-79
2021/10/04 09:11:49;;;;;;;8.75;1.17;;;;;;;15.79;63.49;99832.88;6095847;23;20101;-79
2021/10/04 09:14:16;;;;;;;3.00;1.25;;;;;;;15.85;64.35;99821.78;6095953;23;20026;-79
2021/10/04 09:16:49;;;;;;;7.07;1.15;;;;;;;15.86;63.97;99814.66;6095698;23;20058;-79
2021/10/04 09:19:18;;;;;;;6.32;1.58;;;;;;;15.91;64.20;99823.09;6096265;23;20454;-79
2021/10/04 09:22:07;;;;;;;2.63;0.85;;;;;;;15.91;63.43;99823.09;6095681;23;20050;-79
2021/10/04 09:24:36;;;;;;;1.60;0.93;;;;;;;16.00;64.09;99824.25;6097980;23;20105;-79
2021/10/04 09:30:23;;;;;;;2.95;1.25;;;;;;;16.10;62.73;99817.22;6098432;23;20082;-79
2021/10/04 09:33:02;;;;;;;3.50;0.93;;;;;;;16.19;63.50;99814.81;6097201;23;20050;-79
2021/10/04 09:35:31;;;;;;;3.50;1.08;;;;;;;16.24;63.86;99821.44;6095449;23;20050;-79
2021/10/04 09:37:59;;;;;;;4.55;1.17;;;;;;;16.30;63.82;99821.91;6096356;23;20029;-79
2021/10/04 09:40:25;;;;;;;2.78;1.02;;;;;;;16.37;64.02;99831.91;6095666;23;20041;-80
2021/10/04 09:42:52;;;;;;;3.85;1.20;;;;;;;16.44;63.81;99834.91;6095773;23;20105;-79
2021/10/04 09:45:26;;;;;;;1.75;0.90;;;;;;;16.50;62.98;99833.59;6095755;23;20019;-80
2021/10/04 09:47:55;;;;;;;3.42;1.13;;;;;;;16.59;63.37;99824.03;6095677;23;20022;-80
2021/10/04 09:50:22;;;;;;;3.92;1.05;;;;;;;16.66;63.06;99847.31;6096061;23;20026;-79
2021/10/04 09:53:01;;;;;;;4.28;1.40;;;;;;;16.66;60.94;99843.81;6095985;23;20029;-80
2021/10/04 09:55:45;;;;;;;4.10;1.13;;;;;;;16.72;61.46;99835.34;6095790;23;20740;-79
2021/10/04 09:58:17;;;;;;;4.30;1.02;;;;;;;16.79;60.92;99833.84;6097338;23;20029;-79
2021/10/04 10:01:02;;;;;;;1.48;1.00;;;;;;;16.84;62.23;99835.28;6096277;23;20030;-82
2021/10/04 10:03:43;;;;;;;4.32;1.10;;;;;;;16.93;62.38;99843.38;6097411;23;20037;-81
2021/10/04 10:06:18;;;;;;;2.17;1.00;;;;;;;17.00;62.35;99845.50;6097164;23;20025;-81
2021/10/04 10:08:53;;;;;;;2.05;0.98;;;;;;;17.05;62.11;99849.50;6097341;23;20130;-83
2021/10/04 10:12:14;;;;;;;2.33;1.08;;;;;;;17.12;62.25;99851.66;6099061;23;20438;-84
2021/10/04 10:14:44;;;;;;;5.80;1.00;;;;;;;17.26;62.38;99843.38;6097408;23;20064;-84
2021/10/04 10:17:31;;;;;;;3.97;0.93;;;;;;;17.32;60.81;99844.66;6097661;23;20022;-83
2021/10/04 10:20:00;;;;;;;3.05;0.98;;;;;;;17.41;61.07;99838.56;6097725;23;20097;-83
2021/10/04 10:22:32;;;;;;;2.67;0.95;;;;;;;17.45;60.93;99829.34;6097584;23;20405;-83
2021/10/04 10:25:50;;;;;;;4.88;1.05;;;;;;;17.43;60.64;99828.63;6097098;23;20024;-83
2021/10/04 10:29:13;;;;;;;2.60;1.17;;;;;;;17.52;60.82;99840.31;6097361;23;20045;-83
2021/10/04 10:31:56;;;;;;;5.10;0.95;;;;;;;17.63;59.96;99849.19;6076556;23;20022;-83
2021/10/04 10:34:53;;;;;;;5.15;1.00;;;;;;;17.76;61.14;99836.50;6097037;23;20023;-83
2021/10/04 10:37:51;;;;;;;1.75;0.88;;;;;;;17.94;61.50;99839.41;6097338;23;20033;-83
2021/10/04 10:40:20;;;;;;;4.55;1.20;;;;;;;18.13;61.59;99843.16;6097132;23;20022;-81
2021/10/04 10:43:05;;;;;;;2.90;0.98;;;;;;;18.27;60.40;99846.44;6097174;23;20023;-81
2021/10/04 10:45:41;;;;;;;6.60;1.08;;;;;;;18.42;59.11;99846.88;6097166;23;20345;-82
2021/10/04 10:48:12;;;;;;;4.70;1.65;;;;;;;18.52;58.07;99845.09;6097147;23;20109;-81
2021/10/04 10:50:42;;;;;;;5.25;1.15;;;;;;;18.59;59.07;99845.38;6097704;23;20454;-79
2021/10/04 10:53:25;;;;;;;2.50;1.10;;;;;;;18.60;58.10;99842.59;6097240;23;20023;-81
2021/10/04 10:55:58;;;;;;;5.38;1.05;;;;;;;18.59;57.00;99848.91;6097164;23;20033;-81
2021/10/04 10:58:30;;;;;;;8.85;1.85;;;;;;;18.57;56.96;99853.53;6097347;23;20022;-82
2021/10/04 11:01:13;;;;;;;4.55;1.00;;;;;;;18.55;57.43;99843.97;6097591;23;20029;-81
2021/10/04 11:04:01;;;;;;;5.32;1.02;;;;;;;18.54;57.88;99847.63;6097088;23;20030;-81
2021/10/04 11:06:39;;;;;;;3.03;1.17;;;;;;;18.62;57.62;99847.78;6097078;23;20101;-81
2021/10/04 11:09:09;;;;;;;3.63;1.08;;;;;;;18.77;59.06;99842.91;6097217;23;20026;-81
2021/10/04 11:11:36;;;;;;;3.08;1.02;;;;;;;18.95;59.59;99855.53;6097200;23;20105;-81
2021/10/04 11:14:09;;;;;;;4.15;1.08;;;;;;;19.14;58.36;99852.88;6096735;23;20152;-81
2021/10/04 11:16:47;;;;;;;3.22;0.80;;;;;;;19.33;58.25;99859.19;6096993;23;20387;-81
2021/10/04 11:19:30;;;;;;;2.88;0.90;;;;;;;19.56;58.35;99861.56;6097337;23;20061;-81
2021/10/04 11:21:59;;;;;;;2.60;1.02;;;;;;;19.81;57.95;99853.88;6096164;23;20058;-81
2021/10/04 11:24:26;;;;;;;3.67;0.88;;;;;;;19.99;57.57;99851.34;6096328;23;20026;-81
2021/10/04 11:27:00;;;;;;;3.75;1.23;;;;;;;20.16;54.73;99844.38;6097031;23;20057;-80
2021/10/04 11:29:27;;;;;;;4.63;1.20;;;;;;;20.41;57.66;99843.84;6096458;23;20032;-80
2021/10/04 11:31:55;;;;;;;3.25;1.15;;;;;;;20.68;56.87;99861.66;6096840;23;20418;-80
2021/10/04 11:34:23;;;;;;;2.03;0.80;;;;;;;21.00;56.68;99830.06;6096868;23;20337;-80
2021/10/04 11:36:56;;;;;;;3.42;1.10;;;;;;;21.33;55.52;99834.81;6097000;23;20058;-80
2021/10/04 11:39:26;;;;;;;;;;;;;;;21.59;56.88;99834.84;6096819;23;20081;-78
2021/10/04 11:42:06;;;;;;;2.85;0.80;;;;;;;21.85;53.63;99835.84;6096872;23;20004;-78
2021/10/04 11:44:43;;;;;;;3.63;1.25;;;;;;;22.00;53.40;99822.69;6095847;23;20034;-78
2021/10/04 11:47:11;;;;;;;2.55;0.85;;;;;;;22.22;54.44;99828.47;6096245;23;20109;-78
2021/10/04 11:49:50;;;;;;;3.53;0.90;;;;;;;22.48;52.15;99827.53;6096183;23;20026;-78
2021/10/04 11:52:19;;;;;;;4.40;0.88;;;;;;;22.85;52.23;99834.38;6096715;23;20106;-78
2021/10/04 11:54:51;;;;;;;2.63;1.15;;;;;;;23.27;51.34;99829.84;6096293;23;20179;-80
2021/10/04 11:57:20;;;;;;;4.22;1.05;;;;;;;23.73;51.87;99835.66;6096234;23;20022;-80
2021/10/04 11:59:56;;;;;;;1.73;0.90;;;;;;;24.19;50.97;99826.97;6096324;23;20033;-80
2021/10/04 12:02:26;;;;;;;3.33;0.80;;;;;;;24.70;49.22;99828.31;6096135;23;20037;-80
2021/10/04 12:05:16;;;;;;;1.92;0.77;;;;;;;25.21;47.47;99813.50;6096445;23;20022;-79
2021/10/04 12:08:18;;;;;;;2.20;0.90;;;;;;;25.69;41.43;99818.63;6095902;23;20105;-79
2021/10/04 12:10:57;;;;;;;3.58;0.90;;;;;;;26.17;46.78;99806.56;6096037;23;20089;-79